»·PEaware :: DAL2211 KSAN-KJFK

DAL2211 :: KSAN-KJFK

FLIGHT INFORMATION

Flight Status: Arrived
Operator:
Delta Air Lines
More flights by this operator :: More flights under this callsign
Pilot: Jose A. (18565)
Aircraft: BOEING 757-200
(B752)
More flights by this aircraft type
Origin: KSAN San Diego Intl-Lindbergh
United States
Destination: KJFK Kennedy Intl
United States
More flights between these airports :: More routes between these airports
Route: ZZOOO2 IPL J2 GBN J50 SSO J4 EWM J66 ABI J4 FUZ UIM ELD SQS ATL FIGEY Q64 TYI ORF SIE CAMRN4
File this flight plan on PilotEdge
Remarks:
Altitude:
(Current/Filed)
35,000ft
Speed:
(Current/Filed)
500kts
Departed: 13-Sep-19 08:51 AM
Arrived: 13-Sep-19 02:04 PM
Distance/Time
Traveled:
2119nm/5:12
Distance/Time
To Go:
Arrived

Flight Plot

Page will automatically refresh every two minutes.

Flight plan parsing failed; only flown route is shown


Map Options




Map Legend


Flown Route
Filed Route
Departure Airport
Arrival Airport
Navaid (VOR, NDB)
Fix

Horizontal Profiles

Position Reports

Time Latitude Longitude Heading Altitude Ground
Speed
13-Sep-19 08:02 32.734101 -117.201812 178 25ft 0kts
13-Sep-19 08:03 32.734101 -117.201812 178 25ft 0kts
13-Sep-19 08:04 32.734101 -117.201812 178 25ft 0kts
13-Sep-19 08:05 32.734101 -117.201812 178 25ft 0kts
13-Sep-19 08:06 32.734101 -117.201812 178 25ft 0kts
13-Sep-19 08:07 32.734101 -117.201812 178 25ft 0kts
13-Sep-19 08:08 32.734101 -117.201812 178 25ft 0kts
13-Sep-19 08:09 32.734101 -117.201812 178 25ft 0kts
13-Sep-19 08:10 32.734101 -117.201812 178 25ft 0kts
13-Sep-19 08:11 32.734101 -117.201812 178 25ft 0kts
13-Sep-19 08:12 32.734101 -117.201812 178 25ft 0kts
13-Sep-19 08:13 32.734101 -117.201812 178 25ft 0kts
13-Sep-19 08:14 32.734101 -117.201812 178 25ft 0kts
13-Sep-19 08:15 32.734101 -117.201812 178 25ft 0kts
13-Sep-19 08:16 32.734101 -117.201812 178 25ft 0kts
13-Sep-19 08:17 32.734101 -117.201812 178 25ft 0kts
13-Sep-19 08:18 32.734101 -117.201812 178 25ft 0kts
13-Sep-19 08:19 32.734101 -117.201812 178 25ft 0kts
13-Sep-19 08:20 32.734101 -117.201812 178 25ft 0kts
13-Sep-19 08:21 32.734101 -117.201812 178 25ft 0kts
13-Sep-19 08:22 32.734101 -117.201812 178 25ft 0kts
13-Sep-19 08:23 32.734101 -117.201812 178 25ft 0kts
13-Sep-19 08:24 32.734101 -117.201812 178 25ft 0kts
13-Sep-19 08:25 32.734101 -117.201812 178 25ft 0kts
13-Sep-19 08:26 32.734101 -117.201812 178 25ft 0kts
13-Sep-19 08:27 32.734101 -117.201812 178 25ft 0kts
13-Sep-19 08:28 32.734101 -117.201812 178 25ft 0kts
13-Sep-19 08:29 32.734101 -117.201812 178 25ft 0kts
13-Sep-19 08:30 32.734101 -117.201812 178 25ft 0kts
13-Sep-19 08:31 32.734101 -117.201812 178 25ft 0kts
13-Sep-19 08:32 32.734101 -117.201812 178 25ft 0kts
13-Sep-19 08:33 32.734101 -117.201812 178 25ft 0kts
13-Sep-19 08:34 32.734101 -117.201812 178 25ft 0kts
13-Sep-19 08:35 32.734101 -117.201812 178 25ft 0kts
13-Sep-19 08:36 32.734220 -117.201817 178 25ft 2kts
13-Sep-19 08:37 32.734796 -117.201864 162 25ft 2kts
13-Sep-19 08:38 32.734781 -117.202277 40 25ft 2kts
13-Sep-19 08:39 32.734235 -117.202675 19 25ft 2kts
13-Sep-19 08:40 32.734185 -117.202694 16 25ft 0kts
13-Sep-19 08:41 32.734185 -117.202694 16 25ft 0kts
13-Sep-19 08:42 32.734330 -117.202643 16 25ft 7kts
13-Sep-19 08:43 32.735349 -117.201234 105 25ft 12kts
13-Sep-19 08:44 32.734030 -117.195825 105 25ft 16kts
13-Sep-19 08:45 32.733115 -117.192046 105 25ft 18kts
13-Sep-19 08:46 32.731093 -117.183663 106 25ft 34kts
13-Sep-19 08:47 32.729577 -117.177562 105 25ft 10kts
13-Sep-19 08:48 32.729514 -117.176957 86 25ft 0kts
13-Sep-19 08:50 32.730294 -117.176240 289 25ft 0kts
13-Sep-19 08:51 32.735677 -117.198359 286 27ft 148kts
13-Sep-19 08:52 32.746729 -117.249522 294 1317ft 169kts
13-Sep-19 08:53 32.752558 -117.310661 247 2077ft 220kts
13-Sep-19 08:54 32.697630 -117.313061 140 3893ft 244kts
13-Sep-19 08:55 32.641055 -117.255741 138 6213ft 278kts
13-Sep-19 08:56 32.618941 -117.175712 72 8854ft 285kts
13-Sep-19 08:57 32.616578 -117.078417 97 10847ft 320kts
13-Sep-19 08:58 32.606303 -116.965131 96 12386ft 366kts
13-Sep-19 08:59 32.615050 -116.843267 75 14850ft 380kts
13-Sep-19 09:00 32.636583 -116.718889 84 17196ft 392kts
13-Sep-19 09:01 32.648296 -116.587888 83 19358ft 406kts
13-Sep-19 09:02 32.661488 -116.452606 84 21403ft 420kts
13-Sep-19 09:03 32.674335 -116.318128 84 23241ft 433kts
13-Sep-19 09:04 32.687950 -116.173990 84 24994ft 445kts
13-Sep-19 09:05 32.701727 -116.026314 84 26617ft 456kts
13-Sep-19 09:06 32.715738 -115.875016 84 28097ft 466kts
13-Sep-19 09:07 32.729855 -115.720470 83 29456ft 475kts
13-Sep-19 09:08 32.743919 -115.564438 84 30689ft 465kts
13-Sep-19 09:09 32.752039 -115.412147 89 31878ft 461kts
13-Sep-19 09:09 32.754204 -115.283336 89 32531ft 472kts
13-Sep-19 09:11 32.758361 -115.101670 89 34009ft 471kts
13-Sep-19 09:12 32.761625 -114.945864 89 34955ft 473kts
13-Sep-19 09:12 32.764217 -114.814912 89 34983ft 477kts
13-Sep-19 09:14 32.767631 -114.631277 89 34982ft 477kts
13-Sep-19 09:14 32.769655 -114.500092 90 34984ft 476kts
13-Sep-19 09:15 32.771708 -114.342336 90 34987ft 476kts
13-Sep-19 09:17 32.773912 -114.158562 90 34987ft 476kts
13-Sep-19 09:17 32.775318 -114.027387 90 34987ft 476kts
13-Sep-19 09:18 32.788749 -113.870811 80 34989ft 479kts
13-Sep-19 09:19 32.812940 -113.715099 81 34991ft 479kts
13-Sep-19 09:20 32.834829 -113.559204 81 34994ft 480kts
13-Sep-19 09:21 32.856797 -113.402616 81 35010ft 480kts
13-Sep-19 09:22 32.878594 -113.245878 81 35022ft 480kts
13-Sep-19 09:23 32.900163 -113.089235 82 35032ft 480kts
13-Sep-19 09:24 32.921608 -112.931981 82 35036ft 481kts
13-Sep-19 09:25 32.942855 -112.774706 82 35039ft 481kts
13-Sep-19 09:26 32.954030 -112.616571 96 35044ft 479kts
13-Sep-19 09:27 32.937029 -112.459724 98 35042ft 477kts
13-Sep-19 09:28 32.922597 -112.302386 97 35050ft 478kts
13-Sep-19 09:29 32.908144 -112.145130 98 35061ft 478kts
13-Sep-19 09:30 32.893387 -111.988056 98 35064ft 478kts
13-Sep-19 09:31 32.870852 -111.832120 107 35068ft 477kts
13-Sep-19 09:32 32.835005 -111.680384 107 35069ft 476kts
13-Sep-19 09:33 32.801131 -111.528459 106 35077ft 477kts
13-Sep-19 09:34 32.766791 -111.375783 107 35089ft 477kts
13-Sep-19 09:35 32.732343 -111.223750 107 35095ft 477kts
13-Sep-19 09:36 32.697712 -111.071763 107 35113ft 477kts
13-Sep-19 09:37 32.662802 -110.919514 107 35121ft 478kts
13-Sep-19 09:38 32.627705 -110.767345 107 35142ft 478kts
13-Sep-19 09:39 32.592375 -110.615092 107 35150ft 479kts
13-Sep-19 09:40 32.556755 -110.462541 108 35159ft 479kts
13-Sep-19 09:41 32.521089 -110.310707 108 35163ft 480kts
13-Sep-19 09:42 32.485102 -110.158409 108 35163ft 480kts
13-Sep-19 09:43 32.448950 -110.006315 108 35172ft 480kts
13-Sep-19 09:44 32.412503 -109.853880 108 35226ft 481kts
13-Sep-19 09:45 32.375862 -109.701502 108 35227ft 481kts
13-Sep-19 09:46 32.339158 -109.549765 108 35231ft 481kts
13-Sep-19 09:47 32.302155 -109.397652 108 35237ft 481kts
13-Sep-19 09:48 32.266660 -109.245097 103 35245ft 482kts
13-Sep-19 09:49 32.252127 -109.087162 97 35259ft 485kts
13-Sep-19 09:50 32.237518 -108.928939 99 35275ft 485kts
13-Sep-19 09:51 32.221932 -108.770555 99 35294ft 485kts
13-Sep-19 09:52 32.206287 -108.611783 99 35312ft 485kts
13-Sep-19 09:53 32.190495 -108.453806 99 35328ft 485kts
13-Sep-19 09:54 32.174480 -108.295626 99 35339ft 486kts
13-Sep-19 09:55 32.158258 -108.137390 99 35336ft 486kts
13-Sep-19 09:56 32.141772 -107.978571 99 35331ft 486kts
13-Sep-19 09:57 32.125173 -107.820613 99 35324ft 486kts
13-Sep-19 09:58 32.108321 -107.662196 99 35320ft 486kts
13-Sep-19 09:59 32.091274 -107.503838 99 35321ft 486kts
13-Sep-19 10:00 32.074036 -107.345616 99 35325ft 486kts
13-Sep-19 10:01 32.056611 -107.187512 99 35331ft 486kts
13-Sep-19 10:02 32.039016 -107.029715 99 35336ft 487kts
13-Sep-19 10:03 32.021141 -106.871250 99 35335ft 487kts
13-Sep-19 10:04 32.003075 -106.712865 99 35325ft 487kts
13-Sep-19 10:05 31.984865 -106.555016 99 35308ft 486kts
13-Sep-19 10:06 31.966449 -106.397131 100 35293ft 486kts
13-Sep-19 10:07 31.953338 -106.238820 88 35293ft 488kts
13-Sep-19 10:08 31.972306 -106.080288 82 35303ft 491kts
13-Sep-19 10:09 31.990101 -105.920805 84 35318ft 490kts
13-Sep-19 10:10 32.006867 -105.761369 84 35341ft 490kts
13-Sep-19 10:11 32.023627 -105.602229 84 35349ft 490kts
13-Sep-19 10:12 32.040233 -105.442305 84 35362ft 490kts
13-Sep-19 10:13 32.056587 -105.282814 84 35380ft 490kts
13-Sep-19 10:14 32.072753 -105.123170 84 35396ft 490kts
13-Sep-19 10:15 32.088705 -104.963599 84 35407ft 490kts
13-Sep-19 10:16 32.104434 -104.804208 84 35409ft 490kts
13-Sep-19 10:17 32.120019 -104.644189 84 35394ft 490kts
13-Sep-19 10:18 32.135362 -104.484545 84 35365ft 490kts
13-Sep-19 10:19 32.150505 -104.324846 84 35340ft 489kts
13-Sep-19 10:20 32.165424 -104.165341 84 35328ft 489kts
13-Sep-19 10:21 32.180132 -104.005921 84 35329ft 489kts
13-Sep-19 10:22 32.194643 -103.846393 84 35332ft 489kts
13-Sep-19 10:23 32.208925 -103.687148 84 35334ft 488kts
13-Sep-19 10:24 32.223037 -103.527512 84 35334ft 488kts
13-Sep-19 10:25 32.236918 -103.368185 85 35323ft 487kts
13-Sep-19 10:26 32.250566 -103.209175 85 35325ft 486kts
13-Sep-19 10:27 32.263982 -103.050509 85 35350ft 485kts
13-Sep-19 10:28 32.277196 -102.891845 85 35355ft 483kts
13-Sep-19 10:29 32.290149 -102.733888 85 35362ft 482kts
13-Sep-19 10:30 32.302842 -102.576722 85 35365ft 481kts
13-Sep-19 10:31 32.315328 -102.419607 85 35365ft 479kts
13-Sep-19 10:32 32.327591 -102.262851 85 35352ft 478kts
13-Sep-19 10:33 32.339639 -102.106356 85 35342ft 478kts
13-Sep-19 10:34 32.351499 -101.949697 85 35343ft 478kts
13-Sep-19 10:35 32.363178 -101.792875 85 35341ft 477kts
13-Sep-19 10:36 32.374615 -101.636661 85 35340ft 478kts
13-Sep-19 10:37 32.385886 -101.479800 86 35340ft 478kts
13-Sep-19 10:38 32.396116 -101.322802 86 35400ft 489kts
13-Sep-19 10:39 32.406692 -101.156017 86 35255ft 501kts
13-Sep-19 10:40 32.416570 -100.997447 86 35334ft 478kts
13-Sep-19 10:41 32.426138 -100.840393 86 35336ft 478kts
13-Sep-19 10:42 32.435531 -100.683380 86 35335ft 477kts
13-Sep-19 10:43 32.444706 -100.526567 86 35338ft 476kts
13-Sep-19 10:44 32.453634 -100.370788 86 35338ft 475kts
13-Sep-19 10:45 32.462395 -100.214481 86 35328ft 474kts
13-Sep-19 10:46 32.470942 -100.058548 86 35308ft 474kts
13-Sep-19 10:47 32.479296 -99.902563 86 35293ft 474kts
13-Sep-19 10:48 32.498968 -99.748217 78 35292ft 475kts
13-Sep-19 10:49 32.525153 -99.594726 79 35296ft 475kts
13-Sep-19 10:50 32.549634 -99.441061 79 35294ft 476kts
13-Sep-19 10:51 32.574147 -99.287112 79 35284ft 476kts
13-Sep-19 10:52 32.598537 -99.132642 79 35274ft 476kts
13-Sep-19 10:53 32.622722 -98.978152 79 35267ft 476kts
13-Sep-19 10:54 32.646667 -98.823922 79 35261ft 476kts
13-Sep-19 10:55 32.670397 -98.669779 79 35263ft 475kts
13-Sep-19 10:56 32.694017 -98.515039 79 35265ft 475kts
13-Sep-19 10:57 32.717351 -98.360853 79 35264ft 474kts
13-Sep-19 10:58 32.740481 -98.206689 79 35259ft 474kts
13-Sep-19 10:59 32.763416 -98.052495 80 35259ft 474kts
13-Sep-19 11:00 32.786166 -97.898153 79 35258ft 474kts
13-Sep-19 11:01 32.808733 -97.743763 80 35253ft 474kts
13-Sep-19 11:02 32.831043 -97.589715 80 35246ft 474kts
13-Sep-19 11:03 32.853298 -97.434667 80 35249ft 475kts
13-Sep-19 11:04 32.875309 -97.279892 80 35241ft 476kts
13-Sep-19 11:05 32.891649 -97.123785 89 35245ft 476kts
13-Sep-19 11:07 32.889751 -96.966383 90 35240ft 476kts
13-Sep-19 11:08 32.889719 -96.808353 89 35243ft 477kts
13-Sep-19 11:09 32.889575 -96.650969 89 35248ft 477kts
13-Sep-19 11:10 32.889152 -96.493084 89 35249ft 476kts
13-Sep-19 11:11 32.888552 -96.335471 89 35248ft 476kts
13-Sep-19 11:12 32.887748 -96.177392 89 35248ft 476kts
13-Sep-19 11:13 32.886750 -96.020112 90 35247ft 476kts
13-Sep-19 11:14 32.899422 -95.864197 74 35251ft 474kts
13-Sep-19 11:15 32.936395 -95.713718 72 35246ft 474kts
13-Sep-19 11:16 32.974070 -95.563159 72 35245ft 474kts
13-Sep-19 11:17 33.011573 -95.412482 72 35242ft 474kts
13-Sep-19 11:18 33.048970 -95.261365 72 35237ft 474kts
13-Sep-19 11:19 33.086073 -95.110567 72 35232ft 474kts
13-Sep-19 11:20 33.122943 -94.959863 73 35229ft 473kts
13-Sep-19 11:21 33.159674 -94.808833 73 35229ft 473kts
13-Sep-19 11:22 33.196157 -94.657948 73 35227ft 473kts
13-Sep-19 11:23 33.232358 -94.507352 73 35227ft 473kts
13-Sep-19 11:23 33.262502 -94.381270 73 35227ft 473kts
13-Sep-19 11:25 33.304386 -94.204815 73 35225ft 473kts
13-Sep-19 11:26 33.339963 -94.053747 73 35228ft 473kts
13-Sep-19 11:26 33.369594 -93.927566 73 35228ft 471kts
13-Sep-19 11:27 33.404869 -93.776523 73 35228ft 471kts
13-Sep-19 11:29 33.445685 -93.600612 73 35225ft 470kts
13-Sep-19 11:29 33.474760 -93.474533 73 35221ft 469kts
13-Sep-19 11:30 33.509249 -93.324134 73 35220ft 469kts
13-Sep-19 11:31 33.543614 -93.173369 73 35216ft 467kts
13-Sep-19 11:33 33.583213 -92.998462 74 35213ft 466kts
13-Sep-19 11:33 33.611416 -92.873134 74 35210ft 466kts
13-Sep-19 11:34 33.645042 -92.722848 74 35209ft 465kts
13-Sep-19 11:35 33.678357 -92.573027 74 35210ft 465kts
13-Sep-19 11:36 33.711488 -92.423090 74 35212ft 465kts
13-Sep-19 11:37 33.744489 -92.272800 74 35214ft 465kts
13-Sep-19 11:38 33.777381 -92.122066 74 35217ft 466kts
13-Sep-19 11:39 33.809999 -91.971616 74 35218ft 466kts
13-Sep-19 11:40 33.842486 -91.820805 74 35219ft 466kts
13-Sep-19 11:41 33.874855 -91.669566 74 35218ft 465kts
13-Sep-19 11:42 33.906860 -91.519029 75 35216ft 464kts
13-Sep-19 11:43 33.938667 -91.368465 75 35212ft 462kts
13-Sep-19 11:44 33.970091 -91.218732 75 35210ft 461kts
13-Sep-19 11:45 34.001257 -91.069257 75 35206ft 460kts
13-Sep-19 11:46 34.032543 -90.918243 75 35203ft 466kts
13-Sep-19 11:47 34.063741 -90.766609 76 35201ft 463kts
13-Sep-19 11:48 34.094474 -90.616215 76 35208ft 462kts
13-Sep-19 11:49 34.125024 -90.465702 76 35213ft 460kts
13-Sep-19 11:50 34.155243 -90.315803 76 35215ft 459kts
13-Sep-19 11:51 34.185216 -90.166103 76 35214ft 458kts
13-Sep-19 11:52 34.214919 -90.016728 76 35217ft 458kts
13-Sep-19 11:53 34.244501 -89.866940 76 35220ft 458kts
13-Sep-19 11:54 34.273820 -89.717453 76 35225ft 458kts
13-Sep-19 11:55 34.303067 -89.567289 76 35227ft 459kts
13-Sep-19 11:56 34.332169 -89.416824 77 35228ft 460kts
13-Sep-19 11:57 34.361238 -89.265448 77 35225ft 461kts
13-Sep-19 11:58 34.390115 -89.113998 77 35219ft 462kts
13-Sep-19 11:59 34.418823 -88.962346 77 35213ft 462kts
13-Sep-19 12:00 34.447392 -88.810318 77 35211ft 462kts
13-Sep-19 12:01 34.475729 -88.658404 77 35208ft 462kts
13-Sep-19 12:02 34.503893 -88.506300 77 35208ft 462kts
13-Sep-19 12:03 34.531798 -88.354464 77 35212ft 462kts
13-Sep-19 12:04 34.559567 -88.202236 78 35216ft 462kts
13-Sep-19 12:05 34.587110 -88.050109 78 35224ft 461kts
13-Sep-19 12:06 34.614485 -87.897742 78 35225ft 461kts
13-Sep-19 12:07 34.641660 -87.745305 78 35224ft 462kts
13-Sep-19 12:08 34.668628 -87.592878 78 35221ft 462kts
13-Sep-19 12:09 34.695525 -87.439665 78 35221ft 463kts
13-Sep-19 12:10 34.722111 -87.287011 78 35222ft 463kts
13-Sep-19 12:11 34.748692 -87.133183 78 35219ft 464kts
13-Sep-19 12:12 34.775030 -86.979539 78 35215ft 464kts
13-Sep-19 12:13 34.801135 -86.826017 78 35211ft 464kts
13-Sep-19 12:14 34.827080 -86.672194 79 35202ft 464kts
13-Sep-19 12:15 34.852934 -86.517625 79 35199ft 465kts
13-Sep-19 12:16 34.878513 -86.363445 79 35200ft 465kts
13-Sep-19 12:17 34.903947 -86.208856 79 35200ft 465kts
13-Sep-19 12:18 34.929115 -86.054582 79 35199ft 465kts
13-Sep-19 12:19 34.954188 -85.899592 79 35198ft 465kts
13-Sep-19 12:20 34.979008 -85.744825 79 35198ft 466kts
13-Sep-19 12:21 35.003746 -85.589241 79 35194ft 466kts
13-Sep-19 12:22 35.028214 -85.434002 79 35192ft 466kts
13-Sep-19 12:23 35.052434 -85.278994 79 35189ft 466kts
13-Sep-19 12:24 35.076564 -85.123172 79 35189ft 466kts
13-Sep-19 12:25 35.100464 -84.967445 79 35193ft 466kts
13-Sep-19 12:26 35.124098 -84.812057 80 35206ft 466kts
13-Sep-19 12:27 35.147597 -84.656136 80 35213ft 466kts
13-Sep-19 12:28 35.170864 -84.500321 80 35214ft 466kts
13-Sep-19 12:29 35.193994 -84.344042 80 35204ft 469kts
13-Sep-19 12:30 35.217784 -84.181470 80 35351ft 497kts
13-Sep-19 12:31 35.242077 -84.013797 80 35339ft 490kts
13-Sep-19 12:32 35.264680 -83.856533 80 35255ft 466kts
13-Sep-19 12:33 35.286932 -83.700107 80 35266ft 466kts
13-Sep-19 12:34 35.308982 -83.543566 80 35298ft 466kts
13-Sep-19 12:35 35.330755 -83.387466 80 35326ft 466kts
13-Sep-19 12:36 35.351671 -83.236031 80 35322ft 466kts
13-Sep-19 12:37 35.373075 -83.079531 80 35304ft 466kts
13-Sep-19 12:38 35.394328 -82.922556 81 35295ft 466kts
13-Sep-19 12:39 35.415333 -82.765805 81 35303ft 466kts
13-Sep-19 12:40 35.454451 -82.614124 67 35314ft 467kts
13-Sep-19 12:41 35.504870 -82.467258 67 35317ft 467kts
13-Sep-19 12:42 35.555268 -82.320391 67 35306ft 468kts
13-Sep-19 12:43 35.605703 -82.172713 67 35289ft 468kts
13-Sep-19 12:44 35.655771 -82.025401 67 35281ft 468kts
13-Sep-19 12:45 35.705823 -81.877402 67 35281ft 468kts
13-Sep-19 12:46 35.755752 -81.729029 67 35295ft 468kts
13-Sep-19 12:47 35.805459 -81.580577 68 35307ft 468kts
13-Sep-19 12:48 35.854859 -81.432304 68 35302ft 468kts
13-Sep-19 12:49 35.904018 -81.284007 68 35301ft 468kts
13-Sep-19 12:50 35.953183 -81.134954 68 35319ft 468kts
13-Sep-19 12:51 36.002031 -80.986088 68 35327ft 467kts
13-Sep-19 12:52 36.050738 -80.836885 68 35335ft 470kts
13-Sep-19 12:53 36.099383 -80.687109 68 35335ft 469kts
13-Sep-19 12:54 36.147912 -80.536928 68 35338ft 469kts
13-Sep-19 12:55 36.196186 -80.386756 68 35336ft 469kts
13-Sep-19 12:56 36.244179 -80.236685 68 35331ft 469kts
13-Sep-19 12:57 36.292023 -80.086283 68 35328ft 469kts
13-Sep-19 12:58 36.339619 -79.935864 68 35333ft 469kts
13-Sep-19 12:59 36.387099 -79.785010 68 35337ft 469kts
13-Sep-19 13:00 36.434254 -79.634393 68 35335ft 469kts
13-Sep-19 13:01 36.481456 -79.482794 68 35343ft 470kts
13-Sep-19 13:02 36.528258 -79.331680 68 35348ft 469kts
13-Sep-19 13:03 36.574919 -79.180198 68 35348ft 469kts
13-Sep-19 13:04 36.621495 -79.028153 68 35355ft 470kts
13-Sep-19 13:05 36.667902 -78.875836 69 35359ft 469kts
13-Sep-19 13:06 36.713925 -78.723938 69 35358ft 469kts
13-Sep-19 13:07 36.759869 -78.571440 69 35362ft 470kts
13-Sep-19 13:08 36.805631 -78.418710 69 35368ft 469kts
13-Sep-19 13:09 36.851035 -78.266300 69 35380ft 469kts
13-Sep-19 13:10 36.896397 -78.113158 69 35394ft 470kts
13-Sep-19 13:11 36.940844 -77.959447 69 35393ft 470kts
13-Sep-19 13:12 36.984098 -77.805030 70 35389ft 471kts
13-Sep-19 13:13 37.027586 -77.650295 69 35385ft 471kts
13-Sep-19 13:14 37.071216 -77.495665 69 35387ft 471kts
13-Sep-19 13:15 37.114906 -77.340883 69 35387ft 471kts
13-Sep-19 13:16 37.158699 -77.186128 69 35387ft 471kts
13-Sep-19 13:17 37.202584 -77.031180 69 35390ft 471kts
13-Sep-19 13:18 37.246845 -76.876657 69 35390ft 472kts
13-Sep-19 13:19 37.291394 -76.721339 69 35390ft 472kts
13-Sep-19 13:20 37.335679 -76.565992 69 35390ft 472kts
13-Sep-19 13:22 37.379679 -76.410649 69 35390ft 472kts
13-Sep-19 13:23 37.423429 -76.255163 69 35390ft 471kts
13-Sep-19 13:24 37.466859 -76.099681 69 35391ft 471kts
13-Sep-19 13:25 37.510074 -75.943721 69 35390ft 472kts
13-Sep-19 13:26 37.584467 -75.813965 31 35388ft 465kts
13-Sep-19 13:27 37.697336 -75.735528 28 35391ft 462kts
13-Sep-19 13:28 37.807983 -75.652315 29 35390ft 462kts
13-Sep-19 13:29 37.918425 -75.568961 29 35391ft 462kts
13-Sep-19 13:30 38.028959 -75.485026 29 35422ft 462kts
13-Sep-19 13:31 38.142528 -75.408911 24 35441ft 461kts
13-Sep-19 13:32 38.257955 -75.337182 25 35441ft 461kts
13-Sep-19 13:33 38.372562 -75.264427 25 35441ft 461kts
13-Sep-19 13:34 38.487696 -75.191244 25 35441ft 462kts
13-Sep-19 13:35 38.602841 -75.117780 25 35441ft 461kts
13-Sep-19 13:36 38.717596 -75.044309 25 35440ft 461kts
13-Sep-19 13:37 38.832433 -74.970500 25 35441ft 461kts
13-Sep-19 13:38 38.947250 -74.896446 25 35441ft 461kts
13-Sep-19 13:39 39.061682 -74.822368 25 35441ft 461kts
13-Sep-19 13:40 39.166698 -74.727192 40 33811ft 469kts
13-Sep-19 13:41 39.265633 -74.616246 38 31162ft 474kts
13-Sep-19 13:42 39.365719 -74.507939 38 28619ft 461kts
13-Sep-19 13:42 39.446683 -74.419707 38 26545ft 451kts
13-Sep-19 13:44 39.556735 -74.299301 38 23739ft 436kts
13-Sep-19 13:44 39.633008 -74.215566 38 21792ft 425kts
13-Sep-19 13:45 39.721804 -74.117749 38 19523ft 412kts
13-Sep-19 13:47 39.821956 -74.007028 39 16982ft 397kts
13-Sep-19 13:47 39.899259 -73.943139 25 17168ft 398kts
13-Sep-19 13:48 39.989396 -73.880966 27 16033ft 335kts
13-Sep-19 13:49 40.069681 -73.875404 341 15527ft 267kts
13-Sep-19 13:50 40.138155 -73.897259 347 12776ft 276kts
13-Sep-19 13:51 40.208278 -73.918376 348 11448ft 250kts
13-Sep-19 13:52 40.275546 -73.938624 348 10315ft 254kts
13-Sep-19 13:53 40.344905 -73.959568 348 8563ft 252kts
13-Sep-19 13:54 40.411985 -73.979856 348 7442ft 245kts
13-Sep-19 13:55 40.475569 -73.999140 349 5880ft 227kts
13-Sep-19 13:56 40.529347 -74.015466 350 5388ft 208kts
13-Sep-19 13:57 40.580685 -74.031085 350 4510ft 208kts
13-Sep-19 13:58 40.631220 -74.015139 50 3466ft 192kts
13-Sep-19 13:59 40.667872 -73.970393 46 2463ft 172kts
13-Sep-19 14:00 40.680370 -73.915715 103 1645ft 149kts
13-Sep-19 14:01 40.668605 -73.866797 116 1211ft 138kts
13-Sep-19 14:02 40.649948 -73.819909 120 218ft 144kts
13-Sep-19 14:03 40.637489 -73.792665 120 24ft 33kts
13-Sep-19 14:04 40.635774 -73.786872 90 24ft 0kts
13-Sep-19 14:05 40.635774 -73.786872 90 24ft 0kts
13-Sep-19 14:06 40.635774 -73.786872 90 24ft 0kts
13-Sep-19 14:07 40.635631 -73.783822 121 24ft 11kts
13-Sep-19 14:08 40.637047 -73.782402 353 24ft 11kts
13-Sep-19 14:09 40.639375 -73.783139 20 24ft 1kts
13-Sep-19 14:10 40.639838 -73.782417 61 24ft 0kts
13-Sep-19 14:11 40.639838 -73.782416 61 24ft 0kts
13-Sep-19 14:12 40.639838 -73.782416 61 24ft 0kts
13-Sep-19 14:13 40.639838 -73.782416 61 24ft 0kts

Navigation Log

Ident Type
Flight plan parsing failed, navigation log unavailable